sensor_id;sensor_type;location;lat;lon;timestamp;temperature;humidity
24412;DHT22;12544;46.760;15.942;2023-01-04T00:01:01;7.20;99.90
24412;DHT22;12544;46.760;15.942;2023-01-04T00:03:28;7.20;99.90
24412;DHT22;12544;46.760;15.942;2023-01-04T00:05:57;7.30;99.90
24412;DHT22;12544;46.760;15.942;2023-01-04T00:08:22;7.30;99.90
24412;DHT22;12544;46.760;15.942;2023-01-04T00:10:48;7.30;99.90
24412;DHT22;12544;46.760;15.942;2023-01-04T00:13:14;7.30;99.90
24412;DHT22;12544;46.760;15.942;2023-01-04T00:15:39;7.30;99.90
24412;DHT22;12544;46.760;15.942;2023-01-04T00:18:05;7.30;99.90
24412;DHT22;12544;46.760;15.942;2023-01-04T00:20:30;7.30;99.90
24412;DHT22;12544;46.760;15.942;2023-01-04T00:22:57;7.30;99.90
24412;DHT22;12544;46.760;15.942;2023-01-04T00:25:25;7.30;99.90
24412;DHT22;12544;46.760;15.942;2023-01-04T00:27:51;7.30;99.90
24412;DHT22;12544;46.760;15.942;2023-01-04T00:30:17;7.40;99.90
24412;DHT22;12544;46.760;15.942;2023-01-04T00:32:43;7.50;99.90
24412;DHT22;12544;46.760;15.942;2023-01-04T00:35:10;7.60;99.90
24412;DHT22;12544;46.760;15.942;2023-01-04T00:37:36;7.60;99.90
24412;DHT22;12544;46.760;15.942;2023-01-04T00:40:02;7.60;99.90
24412;DHT22;12544;46.760;15.942;2023-01-04T00:42:27;7.60;99.90
24412;DHT22;12544;46.760;15.942;2023-01-04T00:45:12;7.70;99.90
24412;DHT22;12544;46.760;15.942;2023-01-04T00:47:38;7.70;99.90
24412;DHT22;12544;46.760;15.942;2023-01-04T00:50:04;7.70;99.90
24412;DHT22;12544;46.760;15.942;2023-01-04T00:52:34;7.60;99.90
24412;DHT22;12544;46.760;15.942;2023-01-04T00:54:59;7.70;99.90
24412;DHT22;12544;46.760;15.942;2023-01-04T00:57:25;7.70;99.90
24412;DHT22;12544;46.760;15.942;2023-01-04T00:59:50;7.70;99.90
24412;DHT22;12544;46.760;15.942;2023-01-04T01:02:21;7.70;99.90
24412;DHT22;12544;46.760;15.942;2023-01-04T01:04:47;7.70;99.90
24412;DHT22;12544;46.760;15.942;2023-01-04T01:07:13;7.70;99.90
24412;DHT22;12544;46.760;15.942;2023-01-04T01:09:38;7.70;99.90
24412;DHT22;12544;46.760;15.942;2023-01-04T01:12:04;7.70;99.90
24412;DHT22;12544;46.760;15.942;2023-01-04T01:14:30;7.70;99.90
24412;DHT22;12544;46.760;15.942;2023-01-04T01:16:55;7.80;99.90
24412;DHT22;12544;46.760;15.942;2023-01-04T01:19:21;7.70;99.90
24412;DHT22;12544;46.760;15.942;2023-01-04T01:21:47;7.70;99.90
24412;DHT22;12544;46.760;15.942;2023-01-04T01:24:18;7.70;99.90
24412;DHT22;12544;46.760;15.942;2023-01-04T01:26:44;7.60;99.90
24412;DHT22;12544;46.760;15.942;2023-01-04T01:29:10;7.50;99.90
24412;DHT22;12544;46.760;15.942;2023-01-04T01:31:35;7.50;99.90
24412;DHT22;12544;46.760;15.942;2023-01-04T01:34:01;7.50;99.90
24412;DHT22;12544;46.760;15.942;2023-01-04T01:36:31;7.50;99.90
24412;DHT22;12544;46.760;15.942;2023-01-04T01:38:57;7.40;99.90
24412;DHT22;12544;46.760;15.942;2023-01-04T01:41:30;7.40;99.90
24412;DHT22;12544;46.760;15.942;2023-01-04T01:46:46;7.30;99.90
24412;DHT22;12544;46.760;15.942;2023-01-04T01:49:23;7.30;99.90
24412;DHT22;12544;46.760;15.942;2023-01-04T01:51:50;7.30;99.90
24412;DHT22;12544;46.760;15.942;2023-01-04T01:54:22;7.20;99.90
24412;DHT22;12544;46.760;15.942;2023-01-04T01:56:53;7.20;99.90
24412;DHT22;12544;46.760;15.942;2023-01-04T01:59:21;7.10;99.90
24412;DHT22;12544;46.760;15.942;2023-01-04T02:01:47;7.10;99.90
24412;DHT22;12544;46.760;15.942;2023-01-04T02:04:15;7.10;99.90
24412;DHT22;12544;46.760;15.942;2023-01-04T02:06:50;7.00;99.90
24412;DHT22;12544;46.760;15.942;2023-01-04T02:09:17;7.00;99.90
24412;DHT22;12544;46.760;15.942;2023-01-04T02:11:43;6.90;99.90
24412;DHT22;12544;46.760;15.942;2023-01-04T02:14:09;6.80;99.90
24412;DHT22;12544;46.760;15.942;2023-01-04T02:32:23;6.90;99.90
24412;DHT22;12544;46.760;15.942;2023-01-04T02:35:20;7.00;99.90
24412;DHT22;12544;46.760;15.942;2023-01-04T02:40:39;7.10;99.90
24412;DHT22;12544;46.760;15.942;2023-01-04T02:46:24;7.20;99.90
24412;DHT22;12544;46.760;15.942;2023-01-04T02:48:51;7.20;99.90
24412;DHT22;12544;46.760;15.942;2023-01-04T02:51:36;7.30;99.90
24412;DHT22;12544;46.760;15.942;2023-01-04T02:54:14;7.30;99.90
24412;DHT22;12544;46.760;15.942;2023-01-04T02:57:17;7.40;99.90
24412;DHT22;12544;46.760;15.942;2023-01-04T03:06:17;7.40;99.90
24412;DHT22;12544;46.760;15.942;2023-01-04T03:11:12;7.50;99.90
24412;DHT22;12544;46.760;15.942;2023-01-04T03:14:25;7.50;99.90
24412;DHT22;12544;46.760;15.942;2023-01-04T03:17:06;7.60;99.90
24412;DHT22;12544;46.760;15.942;2023-01-04T03:19:36;7.60;99.90
24412;DHT22;12544;46.760;15.942;2023-01-04T03:22:33;7.60;99.90
24412;DHT22;12544;46.760;15.942;2023-01-04T03:25:22;7.60;99.90
24412;DHT22;12544;46.760;15.942;2023-01-04T03:28:09;7.60;99.90
24412;DHT22;12544;46.760;15.942;2023-01-04T03:31:16;7.60;99.90
24412;DHT22;12544;46.760;15.942;2023-01-04T03:34:03;7.60;99.90
24412;DHT22;12544;46.760;15.942;2023-01-04T03:37:13;7.60;99.90
24412;DHT22;12544;46.760;15.942;2023-01-04T03:40:11;7.50;99.90
24412;DHT22;12544;46.760;15.942;2023-01-04T03:43:31;7.40;99.90
24412;DHT22;12544;46.760;15.942;2023-01-04T03:46:37;7.40;99.90
24412;DHT22;12544;46.760;15.942;2023-01-04T03:49:50;7.40;99.90
24412;DHT22;12544;46.760;15.942;2023-01-04T03:52:22;7.40;99.90
24412;DHT22;12544;46.760;15.942;2023-01-04T03:54:51;7.40;99.90
24412;DHT22;12544;46.760;15.942;2023-01-04T03:57:19;7.30;99.90
24412;DHT22;12544;46.760;15.942;2023-01-04T03:59:52;7.30;99.90
24412;DHT22;12544;46.760;15.942;2023-01-04T04:02:27;7.30;99.90
24412;DHT22;12544;46.760;15.942;2023-01-04T04:04:53;7.40;99.90
24412;DHT22;12544;46.760;15.942;2023-01-04T04:07:37;7.40;99.90
24412;DHT22;12544;46.760;15.942;2023-01-04T04:10:21;7.40;99.90
24412;DHT22;12544;46.760;15.942;2023-01-04T04:12:46;7.40;99.90
24412;DHT22;12544;46.760;15.942;2023-01-04T04:15:13;7.40;99.90
24412;DHT22;12544;46.760;15.942;2023-01-04T04:17:39;7.30;99.90
24412;DHT22;12544;46.760;15.942;2023-01-04T04:20:05;7.30;99.90
24412;DHT22;12544;46.760;15.942;2023-01-04T04:22:31;7.30;99.90
24412;DHT22;12544;46.760;15.942;2023-01-04T04:24:59;7.20;99.90
24412;DHT22;12544;46.760;15.942;2023-01-04T04:27:24;7.30;99.90
24412;DHT22;12544;46.760;15.942;2023-01-04T04:29:50;7.30;99.90
24412;DHT22;12544;46.760;15.942;2023-01-04T04:32:15;7.20;99.90
24412;DHT22;12544;46.760;15.942;2023-01-04T04:34:41;7.30;99.90
24412;DHT22;12544;46.760;15.942;2023-01-04T04:37:07;7.30;99.90
24412;DHT22;12544;46.760;15.942;2023-01-04T04:39:32;7.30;99.90
24412;DHT22;12544;46.760;15.942;2023-01-04T04:41:58;7.30;99.90
24412;DHT22;12544;46.760;15.942;2023-01-04T04:44:23;7.30;99.90
24412;DHT22;12544;46.760;15.942;2023-01-04T04:46:49;7.30;99.90
24412;DHT22;12544;46.760;15.942;2023-01-04T04:49:17;7.30;99.90
24412;DHT22;12544;46.760;15.942;2023-01-04T04:51:43;7.30;99.90
24412;DHT22;12544;46.760;15.942;2023-01-04T04:54:10;7.30;99.90
24412;DHT22;12544;46.760;15.942;2023-01-04T04:56:37;7.20;99.90
24412;DHT22;12544;46.760;15.942;2023-01-04T04:59:03;7.20;99.90
24412;DHT22;12544;46.760;15.942;2023-01-04T05:01:29;7.10;99.90
24412;DHT22;12544;46.760;15.942;2023-01-04T05:03:55;7.10;99.90
24412;DHT22;12544;46.760;15.942;2023-01-04T05:06:21;7.10;99.90
24412;DHT22;12544;46.760;15.942;2023-01-04T05:08:47;7.00;99.90
24412;DHT22;12544;46.760;15.942;2023-01-04T05:11:13;7.00;99.90
24412;DHT22;12544;46.760;15.942;2023-01-04T05:13:39;7.00;99.90
24412;DHT22;12544;46.760;15.942;2023-01-04T05:16:08;7.00;99.90
24412;DHT22;12544;46.760;15.942;2023-01-04T05:18:33;7.00;99.90
24412;DHT22;12544;46.760;15.942;2023-01-04T05:20:59;7.00;99.90
24412;DHT22;12544;46.760;15.942;2023-01-04T05:23:25;7.00;99.90
24412;DHT22;12544;46.760;15.942;2023-01-04T05:25:53;7.10;99.90
24412;DHT22;12544;46.760;15.942;2023-01-04T05:28:19;7.10;99.90
24412;DHT22;12544;46.760;15.942;2023-01-04T05:30:48;7.10;99.90
24412;DHT22;12544;46.760;15.942;2023-01-04T05:33:21;7.10;99.90
24412;DHT22;12544;46.760;15.942;2023-01-04T05:35:47;7.10;99.90
24412;DHT22;12544;46.760;15.942;2023-01-04T05:38:14;7.10;99.90
24412;DHT22;12544;46.760;15.942;2023-01-04T05:40:39;7.10;99.90
24412;DHT22;12544;46.760;15.942;2023-01-04T05:43:05;7.10;99.90
24412;DHT22;12544;46.760;15.942;2023-01-04T05:45:31;7.10;99.90
24412;DHT22;12544;46.760;15.942;2023-01-04T05:47:57;7.10;99.90
24412;DHT22;12544;46.760;15.942;2023-01-04T05:50:23;7.10;99.90
24412;DHT22;12544;46.760;15.942;2023-01-04T05:52:49;7.10;99.90
24412;DHT22;12544;46.760;15.942;2023-01-04T05:55:18;7.20;99.90
24412;DHT22;12544;46.760;15.942;2023-01-04T05:57:43;7.20;99.90
24412;DHT22;12544;46.760;15.942;2023-01-04T06:00:10;7.20;99.90
24412;DHT22;12544;46.760;15.942;2023-01-04T06:02:36;7.20;99.90
24412;DHT22;12544;46.760;15.942;2023-01-04T06:05:02;7.20;99.90
24412;DHT22;12544;46.760;15.942;2023-01-04T06:07:32;7.20;99.90
24412;DHT22;12544;46.760;15.942;2023-01-04T06:09:58;7.20;99.90
24412;DHT22;12544;46.760;15.942;2023-01-04T06:12:24;7.20;99.90
24412;DHT22;12544;46.760;15.942;2023-01-04T06:14:50;7.10;99.90
24412;DHT22;12544;46.760;15.942;2023-01-04T06:17:16;7.20;99.90
24412;DHT22;12544;46.760;15.942;2023-01-04T06:19:47;7.20;99.90
24412;DHT22;12544;46.760;15.942;2023-01-04T06:22:13;7.30;99.90
24412;DHT22;12544;46.760;15.942;2023-01-04T06:24:39;7.30;99.90
24412;DHT22;12544;46.760;15.942;2023-01-04T06:27:04;7.40;99.90
24412;DHT22;12544;46.760;15.942;2023-01-04T06:29:30;7.30;99.90
24412;DHT22;12544;46.760;15.942;2023-01-04T06:31:56;7.30;99.90
24412;DHT22;12544;46.760;15.942;2023-01-04T06:34:21;7.40;99.90
24412;DHT22;12544;46.760;15.942;2023-01-04T06:36:47;7.40;99.90
24412;DHT22;12544;46.760;15.942;2023-01-04T06:39:14;7.40;99.90
24412;DHT22;12544;46.760;15.942;2023-01-04T06:41:39;7.40;99.90
24412;DHT22;12544;46.760;15.942;2023-01-04T06:44:05;7.50;99.90
24412;DHT22;12544;46.760;15.942;2023-01-04T06:46:31;7.50;99.90
24412;DHT22;12544;46.760;15.942;2023-01-04T06:48:56;7.60;99.90
24412;DHT22;12544;46.760;15.942;2023-01-04T06:51:24;7.60;99.90
24412;DHT22;12544;46.760;15.942;2023-01-04T06:53:50;7.60;99.90
24412;DHT22;12544;46.760;15.942;2023-01-04T06:56:16;7.70;99.90
24412;DHT22;12544;46.760;15.942;2023-01-04T06:58:41;7.70;99.90
24412;DHT22;12544;46.760;15.942;2023-01-04T07:01:23;7.70;99.90
24412;DHT22;12544;46.760;15.942;2023-01-04T07:03:49;7.80;99.90
24412;DHT22;12544;46.760;15.942;2023-01-04T07:06:14;7.80;99.90
24412;DHT22;12544;46.760;15.942;2023-01-04T07:08:40;7.70;99.90
24412;DHT22;12544;46.760;15.942;2023-01-04T07:11:06;7.80;99.90
24412;DHT22;12544;46.760;15.942;2023-01-04T07:13:31;7.80;99.90
24412;DHT22;12544;46.760;15.942;2023-01-04T07:15:57;7.80;99.90
24412;DHT22;12544;46.760;15.942;2023-01-04T07:18:23;7.80;99.90
24412;DHT22;12544;46.760;15.942;2023-01-04T07:20:48;7.80;99.90
24412;DHT22;12544;46.760;15.942;2023-01-04T07:23:14;7.90;99.90
24412;DHT22;12544;46.760;15.942;2023-01-04T07:26:00;7.90;99.90
24412;DHT22;12544;46.760;15.942;2023-01-04T07:28:25;7.90;99.90
24412;DHT22;12544;46.760;15.942;2023-01-04T07:31:09;7.90;99.90
24412;DHT22;12544;46.760;15.942;2023-01-04T07:33:35;7.90;99.90
24412;DHT22;12544;46.760;15.942;2023-01-04T07:36:06;7.90;99.90
24412;DHT22;12544;46.760;15.942;2023-01-04T07:38:35;7.80;99.90
24412;DHT22;12544;46.760;15.942;2023-01-04T07:41:01;7.80;99.90
24412;DHT22;12544;46.760;15.942;2023-01-04T07:43:26;7.80;99.90
24412;DHT22;12544;46.760;15.942;2023-01-04T07:45:52;7.90;99.90
24412;DHT22;12544;46.760;15.942;2023-01-04T07:48:18;7.90;99.90
24412;DHT22;12544;46.760;15.942;2023-01-04T07:50:44;8.00;99.90
24412;DHT22;12544;46.760;15.942;2023-01-04T07:53:10;8.00;99.90
24412;DHT22;12544;46.760;15.942;2023-01-04T07:55:36;8.00;99.90
24412;DHT22;12544;46.760;15.942;2023-01-04T07:58:02;8.00;99.90
24412;DHT22;12544;46.760;15.942;2023-01-04T08:00:28;8.00;99.90
24412;DHT22;12544;46.760;15.942;2023-01-04T08:02:53;8.10;99.90
24412;DHT22;12544;46.760;15.942;2023-01-04T08:05:19;8.00;99.90
24412;DHT22;12544;46.760;15.942;2023-01-04T08:07:44;8.00;99.90
24412;DHT22;12544;46.760;15.942;2023-01-04T08:10:10;8.00;99.90
24412;DHT22;12544;46.760;15.942;2023-01-04T08:12:36;8.00;99.90
24412;DHT22;12544;46.760;15.942;2023-01-04T08:15:01;8.10;99.90
24412;DHT22;12544;46.760;15.942;2023-01-04T08:17:27;8.10;99.90
24412;DHT22;12544;46.760;15.942;2023-01-04T08:19:52;8.00;99.90
24412;DHT22;12544;46.760;15.942;2023-01-04T08:22:18;8.10;99.90
24412;DHT22;12544;46.760;15.942;2023-01-04T08:24:44;8.10;99.90
24412;DHT22;12544;46.760;15.942;2023-01-04T08:27:09;8.20;99.90
24412;DHT22;12544;46.760;15.942;2023-01-04T08:29:35;8.10;99.90
24412;DHT22;12544;46.760;15.942;2023-01-04T08:32:02;8.20;99.90
24412;DHT22;12544;46.760;15.942;2023-01-04T08:34:27;8.20;99.90
24412;DHT22;12544;46.760;15.942;2023-01-04T08:36:54;8.20;99.90
24412;DHT22;12544;46.760;15.942;2023-01-04T08:39:19;8.20;99.90
24412;DHT22;12544;46.760;15.942;2023-01-04T08:41:46;8.30;99.90
24412;DHT22;12544;46.760;15.942;2023-01-04T08:44:22;8.10;99.90
24412;DHT22;12544;46.760;15.942;2023-01-04T08:46:49;8.20;99.90
24412;DHT22;12544;46.760;15.942;2023-01-04T08:49:33;8.30;99.90
24412;DHT22;12544;46.760;15.942;2023-01-04T08:51:59;8.30;99.90
24412;DHT22;12544;46.760;15.942;2023-01-04T08:54:25;8.40;99.90
24412;DHT22;12544;46.760;15.942;2023-01-04T08:56:51;8.40;99.90
24412;DHT22;12544;46.760;15.942;2023-01-04T08:59:17;8.40;99.90
24412;DHT22;12544;46.760;15.942;2023-01-04T09:01:42;8.40;99.90
24412;DHT22;12544;46.760;15.942;2023-01-04T09:04:09;8.50;99.90
24412;DHT22;12544;46.760;15.942;2023-01-04T09:06:35;8.50;99.90
24412;DHT22;12544;46.760;15.942;2023-01-04T09:09:01;8.60;99.90
24412;DHT22;12544;46.760;15.942;2023-01-04T09:11:27;8.60;99.90
24412;DHT22;12544;46.760;15.942;2023-01-04T09:13:58;8.60;99.90
24412;DHT22;12544;46.760;15.942;2023-01-04T09:16:23;8.60;99.90
24412;DHT22;12544;46.760;15.942;2023-01-04T09:18:49;8.60;99.90
24412;DHT22;12544;46.760;15.942;2023-01-04T09:21:18;8.70;99.90
24412;DHT22;12544;46.760;15.942;2023-01-04T09:23:44;8.70;99.90
24412;DHT22;12544;46.760;15.942;2023-01-04T09:26:19;8.80;99.90
24412;DHT22;12544;46.760;15.942;2023-01-04T09:28:51;8.90;99.90
24412;DHT22;12544;46.760;15.942;2023-01-04T09:31:20;8.90;99.90
24412;DHT22;12544;46.760;15.942;2023-01-04T09:33:46;8.90;99.90
24412;DHT22;12544;46.760;15.942;2023-01-04T09:36:16;9.00;99.90
24412;DHT22;12544;46.760;15.942;2023-01-04T09:38:42;9.10;99.90
24412;DHT22;12544;46.760;15.942;2023-01-04T09:41:27;9.10;99.90
24412;DHT22;12544;46.760;15.942;2023-01-04T09:43:55;9.10;99.90
24412;DHT22;12544;46.760;15.942;2023-01-04T09:49:24;9.30;99.90
24412;DHT22;12544;46.760;15.942;2023-01-04T09:54:51;9.50;99.90
24412;DHT22;12544;46.760;15.942;2023-01-04T09:57:25;9.70;99.90
24412;DHT22;12544;46.760;15.942;2023-01-04T10:00:06;9.90;99.90
24412;DHT22;12544;46.760;15.942;2023-01-04T10:02:44;10.20;99.90
24412;DHT22;12544;46.760;15.942;2023-01-04T10:05:21;10.20;99.90
24412;DHT22;12544;46.760;15.942;2023-01-04T10:07:48;10.40;99.90
24412;DHT22;12544;46.760;15.942;2023-01-04T10:10:15;10.50;99.90
24412;DHT22;12544;46.760;15.942;2023-01-04T10:12:45;10.60;99.90
24412;DHT22;12544;46.760;15.942;2023-01-04T10:18:19;10.90;99.90
24412;DHT22;12544;46.760;15.942;2023-01-04T10:20:51;11.00;99.90
24412;DHT22;12544;46.760;15.942;2023-01-04T10:23:45;11.10;99.90
24412;DHT22;12544;46.760;15.942;2023-01-04T10:26:32;11.20;99.90
24412;DHT22;12544;46.760;15.942;2023-01-04T10:29:05;11.20;99.90
24412;DHT22;12544;46.760;15.942;2023-01-04T10:31:44;11.40;99.90
24412;DHT22;12544;46.760;15.942;2023-01-04T10:34:23;11.50;99.90
24412;DHT22;12544;46.760;15.942;2023-01-04T10:36:55;11.60;99.90
24412;DHT22;12544;46.760;15.942;2023-01-04T10:39:24;11.70;99.90
24412;DHT22;12544;46.760;15.942;2023-01-04T10:42:13;11.80;99.90
24412;DHT22;12544;46.760;15.942;2023-01-04T10:48:21;11.90;99.90
24412;DHT22;12544;46.760;15.942;2023-01-04T10:50:37;12.10;99.90
24412;DHT22;12544;46.760;15.942;2023-01-04T11:07:04;12.50;99.90
24412;DHT22;12544;46.760;15.942;2023-01-04T11:09:47;12.40;99.90
24412;DHT22;12544;46.760;15.942;2023-01-04T11:12:16;12.50;99.90
24412;DHT22;12544;46.760;15.942;2023-01-04T11:14:44;12.50;99.90
24412;DHT22;12544;46.760;15.942;2023-01-04T11:17:10;12.50;99.90
24412;DHT22;12544;46.760;15.942;2023-01-04T11:19:38;12.60;99.90
24412;DHT22;12544;46.760;15.942;2023-01-04T11:24:47;12.70;99.90
24412;DHT22;12544;46.760;15.942;2023-01-04T11:27:18;12.80;99.90
24412;DHT22;12544;46.760;15.942;2023-01-04T11:30:03;12.90;99.90
24412;DHT22;12544;46.760;15.942;2023-01-04T11:35:55;12.70;99.90
24412;DHT22;12544;46.760;15.942;2023-01-04T11:38:26;12.60;99.90
24412;DHT22;12544;46.760;15.942;2023-01-04T11:41:01;12.70;99.90
24412;DHT22;12544;46.760;15.942;2023-01-04T11:43:30;12.60;99.90
24412;DHT22;12544;46.760;15.942;2023-01-04T11:46:06;12.40;99.90
24412;DHT22;12544;46.760;15.942;2023-01-04T11:48:36;12.20;99.90
24412;DHT22;12544;46.760;15.942;2023-01-04T11:51:03;12.30;99.90
24412;DHT22;12544;46.760;15.942;2023-01-04T11:53:30;12.30;99.90
24412;DHT22;12544;46.760;15.942;2023-01-04T11:56:18;12.30;99.90
24412;DHT22;12544;46.760;15.942;2023-01-04T11:59:05;12.30;99.90
24412;DHT22;12544;46.760;15.942;2023-01-04T12:01:34;12.50;99.90
24412;DHT22;12544;46.760;15.942;2023-01-04T12:04:00;12.40;99.90
24412;DHT22;12544;46.760;15.942;2023-01-04T12:09:01;12.60;99.90
24412;DHT22;12544;46.760;15.942;2023-01-04T12:11:33;12.50;99.90
24412;DHT22;12544;46.760;15.942;2023-01-04T12:14:03;12.50;99.90
24412;DHT22;12544;46.760;15.942;2023-01-04T12:16:44;12.60;99.90
24412;DHT22;12544;46.760;15.942;2023-01-04T12:19:16;12.60;99.90
24412;DHT22;12544;46.760;15.942;2023-01-04T12:21:45;12.60;99.90
24412;DHT22;12544;46.760;15.942;2023-01-04T12:24:18;12.70;99.90
24412;DHT22;12544;46.760;15.942;2023-01-04T12:26:44;12.70;99.90
24412;DHT22;12544;46.760;15.942;2023-01-04T12:31:52;12.70;99.90
24412;DHT22;12544;46.760;15.942;2023-01-04T12:37:05;12.80;99.90
24412;DHT22;12544;46.760;15.942;2023-01-04T12:39:39;12.80;99.90
24412;DHT22;12544;46.760;15.942;2023-01-04T12:50:19;12.90;99.90
24412;DHT22;12544;46.760;15.942;2023-01-04T12:53:03;12.90;99.90
24412;DHT22;12544;46.760;15.942;2023-01-04T12:58:00;12.90;99.90
24412;DHT22;12544;46.760;15.942;2023-01-04T13:06:04;12.80;99.90
24412;DHT22;12544;46.760;15.942;2023-01-04T13:08:38;12.80;99.90
24412;DHT22;12544;46.760;15.942;2023-01-04T13:11:17;12.80;99.90
24412;DHT22;12544;46.760;15.942;2023-01-04T13:14:30;12.80;99.90
24412;DHT22;12544;46.760;15.942;2023-01-04T13:17:30;12.90;99.90
24412;DHT22;12544;46.760;15.942;2023-01-04T13:20:14;13.10;99.90
24412;DHT22;12544;46.760;15.942;2023-01-04T13:22:47;13.10;99.90
24412;DHT22;12544;46.760;15.942;2023-01-04T13:25:13;13.20;99.90
24412;DHT22;12544;46.760;15.942;2023-01-04T13:28:00;13.10;99.90
24412;DHT22;12544;46.760;15.942;2023-01-04T13:30:37;13.10;99.90
24412;DHT22;12544;46.760;15.942;2023-01-04T13:36:11;13.00;99.90
24412;DHT22;12544;46.760;15.942;2023-01-04T13:38:39;13.00;99.90
24412;DHT22;12544;46.760;15.942;2023-01-04T13:41:19;13.00;99.90
24412;DHT22;12544;46.760;15.942;2023-01-04T13:46:24;13.10;99.90
24412;DHT22;12544;46.760;15.942;2023-01-04T13:48:52;13.10;99.90
24412;DHT22;12544;46.760;15.942;2023-01-04T13:51:22;13.10;99.90
24412;DHT22;12544;46.760;15.942;2023-01-04T13:53:56;13.10;99.90
24412;DHT22;12544;46.760;15.942;2023-01-04T13:56:39;13.10;99.90
24412;DHT22;12544;46.760;15.942;2023-01-04T13:59:07;13.10;99.90
24412;DHT22;12544;46.760;15.942;2023-01-04T14:01:44;13.10;99.90
24412;DHT22;12544;46.760;15.942;2023-01-04T14:04:20;13.10;99.90
24412;DHT22;12544;46.760;15.942;2023-01-04T14:07:10;13.10;99.90
24412;DHT22;12544;46.760;15.942;2023-01-04T14:09:46;13.20;99.90
24412;DHT22;12544;46.760;15.942;2023-01-04T14:12:27;13.20;99.90
24412;DHT22;12544;46.760;15.942;2023-01-04T14:15:14;13.30;99.90
24412;DHT22;12544;46.760;15.942;2023-01-04T14:17:55;13.40;99.90
24412;DHT22;12544;46.760;15.942;2023-01-04T14:28:37;13.50;99.90
24412;DHT22;12544;46.760;15.942;2023-01-04T14:44:27;13.30;99.90
24412;DHT22;12544;46.760;15.942;2023-01-04T14:46:57;13.30;99.90
24412;DHT22;12544;46.760;15.942;2023-01-04T14:49:23;13.20;99.90
24412;DHT22;12544;46.760;15.942;2023-01-04T14:51:59;13.20;99.90
24412;DHT22;12544;46.760;15.942;2023-01-04T14:54:27;13.10;99.90
24412;DHT22;12544;46.760;15.942;2023-01-04T14:56:54;13.00;99.90
24412;DHT22;12544;46.760;15.942;2023-01-04T14:59:26;12.90;99.90
24412;DHT22;12544;46.760;15.942;2023-01-04T15:01:53;12.90;99.90
24412;DHT22;12544;46.760;15.942;2023-01-04T15:04:19;12.70;99.90
24412;DHT22;12544;46.760;15.942;2023-01-04T15:06:47;12.60;99.90
24412;DHT22;12544;46.760;15.942;2023-01-04T15:09:31;12.50;99.90
24412;DHT22;12544;46.760;15.942;2023-01-04T15:12:05;12.40;99.90
24412;DHT22;12544;46.760;15.942;2023-01-04T15:14:52;12.20;99.90
24412;DHT22;12544;46.760;15.942;2023-01-04T15:17:17;12.10;99.90
24412;DHT22;12544;46.760;15.942;2023-01-04T15:19:43;12.00;99.90
24412;DHT22;12544;46.760;15.942;2023-01-04T15:22:08;11.80;99.90
24412;DHT22;12544;46.760;15.942;2023-01-04T15:24:34;11.80;99.90
24412;DHT22;12544;46.760;15.942;2023-01-04T15:27:08;11.70;99.90
24412;DHT22;12544;46.760;15.942;2023-01-04T15:29:33;11.50;99.90
24412;DHT22;12544;46.760;15.942;2023-01-04T15:31:59;11.40;99.90
24412;DHT22;12544;46.760;15.942;2023-01-04T15:34:25;11.20;99.90
24412;DHT22;12544;46.760;15.942;2023-01-04T15:36:51;11.10;99.90
24412;DHT22;12544;46.760;15.942;2023-01-04T15:39:16;10.90;99.90
24412;DHT22;12544;46.760;15.942;2023-01-04T15:41:42;10.80;99.90
24412;DHT22;12544;46.760;15.942;2023-01-04T15:44:27;10.70;99.90
24412;DHT22;12544;46.760;15.942;2023-01-04T15:46:53;10.70;99.90
24412;DHT22;12544;46.760;15.942;2023-01-04T15:49:19;10.60;99.90
24412;DHT22;12544;46.760;15.942;2023-01-04T15:51:45;10.60;99.90
24412;DHT22;12544;46.760;15.942;2023-01-04T15:54:11;10.50;99.90
24412;DHT22;12544;46.760;15.942;2023-01-04T15:56:36;10.50;99.90
24412;DHT22;12544;46.760;15.942;2023-01-04T15:59:02;10.40;99.90
24412;DHT22;12544;46.760;15.942;2023-01-04T16:01:31;10.40;99.90
24412;DHT22;12544;46.760;15.942;2023-01-04T16:03:56;10.20;99.90
24412;DHT22;12544;46.760;15.942;2023-01-04T16:06:22;10.20;99.90
24412;DHT22;12544;46.760;15.942;2023-01-04T16:08:48;10.10;99.90
24412;DHT22;12544;46.760;15.942;2023-01-04T16:11:22;10.00;99.90
24412;DHT22;12544;46.760;15.942;2023-01-04T16:13:49;10.00;99.90
24412;DHT22;12544;46.760;15.942;2023-01-04T16:16:17;9.90;99.90
24412;DHT22;12544;46.760;15.942;2023-01-04T16:19:06;9.90;99.90
24412;DHT22;12544;46.760;15.942;2023-01-04T16:21:32;9.80;99.90
24412;DHT22;12544;46.760;15.942;2023-01-04T16:23:58;9.70;99.90
24412;DHT22;12544;46.760;15.942;2023-01-04T16:26:25;9.50;99.90
24412;DHT22;12544;46.760;15.942;2023-01-04T16:28:52;9.50;99.90
24412;DHT22;12544;46.760;15.942;2023-01-04T16:31:19;9.50;99.90
24412;DHT22;12544;46.760;15.942;2023-01-04T16:33:45;9.50;99.90
24412;DHT22;12544;46.760;15.942;2023-01-04T16:36:14;9.40;99.90
24412;DHT22;12544;46.760;15.942;2023-01-04T16:38:42;9.40;99.90
24412;DHT22;12544;46.760;15.942;2023-01-04T16:41:11;9.30;99.90
24412;DHT22;12544;46.760;15.942;2023-01-04T16:43:46;9.30;99.90
24412;DHT22;12544;46.760;15.942;2023-01-04T16:48:45;9.30;99.90
24412;DHT22;12544;46.760;15.942;2023-01-04T16:51:11;9.30;99.90
24412;DHT22;12544;46.760;15.942;2023-01-04T16:53:37;9.30;99.90
24412;DHT22;12544;46.760;15.942;2023-01-04T16:56:04;9.30;99.90
24412;DHT22;12544;46.760;15.942;2023-01-04T16:58:30;9.30;99.90
24412;DHT22;12544;46.760;15.942;2023-01-04T17:01:14;9.20;99.90
24412;DHT22;12544;46.760;15.942;2023-01-04T17:03:41;9.10;99.90
24412;DHT22;12544;46.760;15.942;2023-01-04T17:06:12;9.00;99.90
24412;DHT22;12544;46.760;15.942;2023-01-04T17:08:38;8.90;99.90
24412;DHT22;12544;46.760;15.942;2023-01-04T17:11:17;8.90;99.90
24412;DHT22;12544;46.760;15.942;2023-01-04T17:13:43;8.80;99.90
24412;DHT22;12544;46.760;15.942;2023-01-04T17:16:13;8.70;99.90
24412;DHT22;12544;46.760;15.942;2023-01-04T17:18:39;8.80;99.90
24412;DHT22;12544;46.760;15.942;2023-01-04T17:21:07;8.80;99.90
24412;DHT22;12544;46.760;15.942;2023-01-04T17:23:35;8.80;99.90
24412;DHT22;12544;46.760;15.942;2023-01-04T17:26:04;8.80;99.90
24412;DHT22;12544;46.760;15.942;2023-01-04T17:28:30;8.80;99.90
24412;DHT22;12544;46.760;15.942;2023-01-04T17:30:58;8.80;99.90
24412;DHT22;12544;46.760;15.942;2023-01-04T17:33:24;8.80;99.90
24412;DHT22;12544;46.760;15.942;2023-01-04T17:35:50;8.80;99.90
24412;DHT22;12544;46.760;15.942;2023-01-04T17:38:16;8.90;99.90
24412;DHT22;12544;46.760;15.942;2023-01-04T17:40:41;8.90;99.90
24412;DHT22;12544;46.760;15.942;2023-01-04T17:43:08;8.90;99.90
24412;DHT22;12544;46.760;15.942;2023-01-04T17:45:34;9.00;99.90
24412;DHT22;12544;46.760;15.942;2023-01-04T17:47:59;8.90;99.90